sensor_id;sensor_type;location;lat;lon;timestamp;pressure;altitude;pressure_sealevel;temperature;humidity
73566;BME280;61846;52.970;-3.168;2023-06-22T00:01:53;100926.61;;;20.77;38.30
73566;BME280;61846;52.970;-3.168;2023-06-22T00:04:18;100924.20;;;20.69;38.97
73566;BME280;61846;52.970;-3.168;2023-06-22T00:06:43;100922.23;;;20.45;39.97
73566;BME280;61846;52.970;-3.168;2023-06-22T00:09:09;100924.93;;;20.86;38.42
73566;BME280;61846;52.970;-3.168;2023-06-22T00:11:34;100923.94;;;20.95;37.86
73566;BME280;61846;52.970;-3.168;2023-06-22T00:14:00;100922.00;;;20.48;38.92
73566;BME280;61846;52.970;-3.168;2023-06-22T00:16:25;100918.20;;;20.50;38.76
73566;BME280;61846;52.970;-3.168;2023-06-22T00:18:51;100917.08;;;20.64;39.06
73566;BME280;61846;52.970;-3.168;2023-06-22T00:21:16;100922.38;;;20.99;38.29
73566;BME280;61846;52.970;-3.168;2023-06-22T00:23:41;100922.77;;;20.60;39.26
73566;BME280;61846;52.970;-3.168;2023-06-22T00:26:07;100922.83;;;20.22;39.51
73566;BME280;61846;52.970;-3.168;2023-06-22T00:28:33;100925.29;;;20.59;39.03
73566;BME280;61846;52.970;-3.168;2023-06-22T00:30:57;100934.39;;;20.24;39.40
73566;BME280;61846;52.970;-3.168;2023-06-22T00:33:23;100932.73;;;20.61;38.91
73566;BME280;61846;52.970;-3.168;2023-06-22T00:35:48;100935.95;;;20.33;39.71
73566;BME280;61846;52.970;-3.168;2023-06-22T00:38:14;100931.68;;;20.43;39.65
73566;BME280;61846;52.970;-3.168;2023-06-22T00:40:39;100933.05;;;19.90;40.43
73566;BME280;61846;52.970;-3.168;2023-06-22T00:43:05;100936.17;;;20.32;40.38
73566;BME280;61846;52.970;-3.168;2023-06-22T00:45:30;100943.74;;;19.66;41.10
73566;BME280;61846;52.970;-3.168;2023-06-22T00:47:56;100940.50;;;20.50;39.64
73566;BME280;61846;52.970;-3.168;2023-06-22T00:50:22;100940.26;;;20.50;39.72
73566;BME280;61846;52.970;-3.168;2023-06-22T00:52:46;100941.99;;;19.96;41.44
73566;BME280;61846;52.970;-3.168;2023-06-22T00:55:11;100944.41;;;19.48;42.09
73566;BME280;61846;52.970;-3.168;2023-06-22T00:57:36;100945.06;;;20.63;40.66
73566;BME280;61846;52.970;-3.168;2023-06-22T01:00:01;100944.52;;;20.55;40.61
73566;BME280;61846;52.970;-3.168;2023-06-22T01:02:26;100945.12;;;19.70;40.92
73566;BME280;61846;52.970;-3.168;2023-06-22T01:04:52;100944.33;;;19.96;40.75
73566;BME280;61846;52.970;-3.168;2023-06-22T01:07:23;100942.02;;;20.72;39.92
73566;BME280;61846;52.970;-3.168;2023-06-22T01:09:48;100944.53;;;20.15;39.91
73566;BME280;61846;52.970;-3.168;2023-06-22T01:12:09;100944.43;;;19.80;40.38
73566;BME280;61846;52.970;-3.168;2023-06-22T01:14:37;100945.71;;;20.07;40.43
73566;BME280;61846;52.970;-3.168;2023-06-22T01:17:00;100947.50;;;20.20;39.87
73566;BME280;61846;52.970;-3.168;2023-06-22T01:19:34;100949.66;;;19.94;39.63
73566;BME280;61846;52.970;-3.168;2023-06-22T01:21:50;100952.98;;;19.70;40.28
73566;BME280;61846;52.970;-3.168;2023-06-22T01:24:21;100953.77;;;19.71;40.87
73566;BME280;61846;52.970;-3.168;2023-06-22T01:26:43;100954.11;;;20.02;40.72
73566;BME280;61846;52.970;-3.168;2023-06-22T01:29:06;100955.80;;;19.10;42.46
73566;BME280;61846;52.970;-3.168;2023-06-22T01:31:32;100957.91;;;18.85;42.59
73566;BME280;61846;52.970;-3.168;2023-06-22T01:33:59;100959.82;;;19.64;41.67
73566;BME280;61846;52.970;-3.168;2023-06-22T01:36:24;100956.84;;;19.08;42.98
73566;BME280;61846;52.970;-3.168;2023-06-22T01:38:48;100961.16;;;19.20;43.41
73566;BME280;61846;52.970;-3.168;2023-06-22T01:41:13;100965.64;;;19.66;42.62
73566;BME280;61846;52.970;-3.168;2023-06-22T01:43:38;100968.33;;;19.64;42.06
73566;BME280;61846;52.970;-3.168;2023-06-22T01:46:04;100964.29;;;19.45;42.06
73566;BME280;61846;52.970;-3.168;2023-06-22T01:48:29;100962.72;;;19.51;42.31
73566;BME280;61846;52.970;-3.168;2023-06-22T01:50:55;100963.70;;;19.68;42.06
73566;BME280;61846;52.970;-3.168;2023-06-22T01:53:21;100966.40;;;18.42;45.01
73566;BME280;61846;52.970;-3.168;2023-06-22T01:55:45;100968.42;;;18.72;44.29
73566;BME280;61846;52.970;-3.168;2023-06-22T01:58:10;100969.96;;;19.21;42.97
73566;BME280;61846;52.970;-3.168;2023-06-22T02:00:38;100969.00;;;19.44;42.73
73566;BME280;61846;52.970;-3.168;2023-06-22T02:03:05;100969.70;;;18.93;43.41
73566;BME280;61846;52.970;-3.168;2023-06-22T02:05:31;100970.91;;;18.86;43.20
73566;BME280;61846;52.970;-3.168;2023-06-22T02:07:56;100969.50;;;18.97;43.05
73566;BME280;61846;52.970;-3.168;2023-06-22T02:10:20;100969.13;;;18.68;43.88
73566;BME280;61846;52.970;-3.168;2023-06-22T02:12:44;100972.90;;;18.48;44.28
73566;BME280;61846;52.970;-3.168;2023-06-22T02:15:10;100972.19;;;18.95;42.78
73566;BME280;61846;52.970;-3.168;2023-06-22T02:17:34;100971.88;;;19.23;42.69
73566;BME280;61846;52.970;-3.168;2023-06-22T02:20:00;100974.13;;;19.14;42.44
73566;BME280;61846;52.970;-3.168;2023-06-22T02:22:25;100975.33;;;18.63;43.81
73566;BME280;61846;52.970;-3.168;2023-06-22T02:24:50;100979.01;;;18.44;43.66
73566;BME280;61846;52.970;-3.168;2023-06-22T02:27:15;100977.84;;;18.73;43.25
73566;BME280;61846;52.970;-3.168;2023-06-22T02:29:41;100980.60;;;18.61;43.44
73566;BME280;61846;52.970;-3.168;2023-06-22T02:32:07;100978.90;;;18.01;45.35
73566;BME280;61846;52.970;-3.168;2023-06-22T02:34:31;100977.91;;;18.13;45.86
73566;BME280;61846;52.970;-3.168;2023-06-22T02:36:57;100976.82;;;17.88;46.55
73566;BME280;61846;52.970;-3.168;2023-06-22T02:39:24;100979.23;;;18.02;45.63
73566;BME280;61846;52.970;-3.168;2023-06-22T02:41:48;100984.65;;;18.20;45.23
73566;BME280;61846;52.970;-3.168;2023-06-22T02:44:13;100987.22;;;18.56;44.44
73566;BME280;61846;52.970;-3.168;2023-06-22T02:46:39;100988.82;;;17.70;46.13
73566;BME280;61846;52.970;-3.168;2023-06-22T02:49:04;100988.86;;;18.31;45.03
73566;BME280;61846;52.970;-3.168;2023-06-22T02:51:32;100991.84;;;17.95;44.46
73566;BME280;61846;52.970;-3.168;2023-06-22T02:53:55;100995.79;;;18.54;44.16
73566;BME280;61846;52.970;-3.168;2023-06-22T02:56:20;100995.82;;;18.20;44.75
73566;BME280;61846;52.970;-3.168;2023-06-22T02:58:46;100994.23;;;18.40;43.69
73566;BME280;61846;52.970;-3.168;2023-06-22T03:01:11;100995.45;;;18.42;44.29
73566;BME280;61846;52.970;-3.168;2023-06-22T03:03:36;100993.85;;;18.22;43.71
73566;BME280;61846;52.970;-3.168;2023-06-22T03:06:02;100995.94;;;18.04;44.40
73566;BME280;61846;52.970;-3.168;2023-06-22T03:08:28;100996.80;;;17.37;45.11
73566;BME280;61846;52.970;-3.168;2023-06-22T03:10:53;101000.50;;;17.05;46.34
73566;BME280;61846;52.970;-3.168;2023-06-22T03:13:18;101000.32;;;18.19;44.11
73566;BME280;61846;52.970;-3.168;2023-06-22T03:15:44;101009.71;;;16.73;46.56
73566;BME280;61846;52.970;-3.168;2023-06-22T03:18:09;101008.65;;;18.29;44.85
73566;BME280;61846;52.970;-3.168;2023-06-22T03:20:35;101005.76;;;17.67;44.84
73566;BME280;61846;52.970;-3.168;2023-06-22T03:23:00;101006.91;;;18.43;44.20
73566;BME280;61846;52.970;-3.168;2023-06-22T03:25:26;101011.28;;;17.16;45.41
73566;BME280;61846;52.970;-3.168;2023-06-22T03:27:51;101015.41;;;16.16;48.50
73566;BME280;61846;52.970;-3.168;2023-06-22T03:30:17;101020.14;;;16.09;49.37
73566;BME280;61846;52.970;-3.168;2023-06-22T03:32:42;101019.90;;;16.19;49.38
73566;BME280;61846;52.970;-3.168;2023-06-22T03:35:08;101022.24;;;16.14;49.46
73566;BME280;61846;52.970;-3.168;2023-06-22T03:37:33;101021.22;;;16.42;48.57
73566;BME280;61846;52.970;-3.168;2023-06-22T03:39:58;101023.43;;;16.30;48.24
73566;BME280;61846;52.970;-3.168;2023-06-22T03:42:24;101022.14;;;16.85;47.37
73566;BME280;61846;52.970;-3.168;2023-06-22T03:44:49;101022.36;;;17.26;46.50
73566;BME280;61846;52.970;-3.168;2023-06-22T03:47:15;101022.12;;;16.99;46.85
73566;BME280;61846;52.970;-3.168;2023-06-22T03:49:40;101023.66;;;17.09;46.32
73566;BME280;61846;52.970;-3.168;2023-06-22T03:52:05;101024.99;;;17.13;46.08
73566;BME280;61846;52.970;-3.168;2023-06-22T03:54:30;101026.01;;;17.59;44.86
73566;BME280;61846;52.970;-3.168;2023-06-22T03:56:57;101024.65;;;17.87;44.43
73566;BME280;61846;52.970;-3.168;2023-06-22T03:59:21;101022.56;;;17.95;44.30
73566;BME280;61846;52.970;-3.168;2023-06-22T04:01:47;101020.79;;;17.68;43.65
73566;BME280;61846;52.970;-3.168;2023-06-22T04:04:12;101024.49;;;17.20;45.30
73566;BME280;61846;52.970;-3.168;2023-06-22T04:06:38;101025.24;;;17.07;45.20
73566;BME280;61846;52.970;-3.168;2023-06-22T04:09:03;101024.74;;;17.93;44.09
73566;BME280;61846;52.970;-3.168;2023-06-22T04:11:29;101025.14;;;17.20;44.51
73566;BME280;61846;52.970;-3.168;2023-06-22T04:13:54;101022.98;;;16.87;45.21
73566;BME280;61846;52.970;-3.168;2023-06-22T04:16:19;101018.86;;;16.99;44.28
73566;BME280;61846;52.970;-3.168;2023-06-22T04:18:45;101016.69;;;17.73;43.02
73566;BME280;61846;52.970;-3.168;2023-06-22T04:21:10;101015.25;;;17.45;43.31
73566;BME280;61846;52.970;-3.168;2023-06-22T04:23:36;101018.36;;;17.56;43.47
73566;BME280;61846;52.970;-3.168;2023-06-22T04:26:01;101023.05;;;17.59;43.84
73566;BME280;61846;52.970;-3.168;2023-06-22T04:28:27;101031.18;;;16.73;45.52
73566;BME280;61846;52.970;-3.168;2023-06-22T04:30:52;101034.31;;;17.27;44.06
73566;BME280;61846;52.970;-3.168;2023-06-22T04:33:17;101035.74;;;17.42;44.04
73566;BME280;61846;52.970;-3.168;2023-06-22T04:35:45;101035.30;;;17.53;44.40
73566;BME280;61846;52.970;-3.168;2023-06-22T04:38:08;101031.48;;;17.41;44.98
73566;BME280;61846;52.970;-3.168;2023-06-22T04:40:34;101029.20;;;16.53;46.16
73566;BME280;61846;52.970;-3.168;2023-06-22T04:42:59;101028.00;;;17.42;44.54
73566;BME280;61846;52.970;-3.168;2023-06-22T04:45:25;101027.40;;;17.08;45.59
73566;BME280;61846;52.970;-3.168;2023-06-22T04:47:51;101026.18;;;17.38;44.90
73566;BME280;61846;52.970;-3.168;2023-06-22T04:50:15;101025.22;;;17.07;45.72
73566;BME280;61846;52.970;-3.168;2023-06-22T04:52:41;101026.04;;;17.14;44.96
73566;BME280;61846;52.970;-3.168;2023-06-22T04:55:07;101024.62;;;18.23;43.94
73566;BME280;61846;52.970;-3.168;2023-06-22T04:57:32;101025.98;;;17.86;43.51
73566;BME280;61846;52.970;-3.168;2023-06-22T04:59:57;101025.50;;;17.28;44.57
73566;BME280;61846;52.970;-3.168;2023-06-22T05:02:22;101026.56;;;17.05;44.92
73566;BME280;61846;52.970;-3.168;2023-06-22T05:04:48;101027.41;;;17.13;45.15
73566;BME280;61846;52.970;-3.168;2023-06-22T05:07:13;101029.20;;;17.61;44.61
73566;BME280;61846;52.970;-3.168;2023-06-22T05:09:39;101028.10;;;17.64;44.63
73566;BME280;61846;52.970;-3.168;2023-06-22T05:12:06;101028.76;;;17.22;45.20
73566;BME280;61846;52.970;-3.168;2023-06-22T05:14:30;101027.99;;;16.69;45.88
73566;BME280;61846;52.970;-3.168;2023-06-22T05:16:55;101027.11;;;16.71;46.60
73566;BME280;61846;52.970;-3.168;2023-06-22T05:19:20;101028.07;;;16.74;46.75
73566;BME280;61846;52.970;-3.168;2023-06-22T05:21:46;101032.36;;;16.58;47.92
73566;BME280;61846;52.970;-3.168;2023-06-22T05:24:11;101036.64;;;15.88;48.81
73566;BME280;61846;52.970;-3.168;2023-06-22T05:26:37;101036.08;;;16.39;48.44
73566;BME280;61846;52.970;-3.168;2023-06-22T05:29:03;101036.84;;;15.65;50.09
73566;BME280;61846;52.970;-3.168;2023-06-22T05:31:28;101031.87;;;15.98;49.46
73566;BME280;61846;52.970;-3.168;2023-06-22T05:33:54;101031.90;;;16.44;48.32
73566;BME280;61846;52.970;-3.168;2023-06-22T05:36:19;101032.37;;;16.42;48.99
73566;BME280;61846;52.970;-3.168;2023-06-22T05:38:44;101034.56;;;16.55;47.84
73566;BME280;61846;52.970;-3.168;2023-06-22T05:41:09;101034.09;;;16.99;47.52
73566;BME280;61846;52.970;-3.168;2023-06-22T05:43:35;101036.54;;;17.34;46.60
73566;BME280;61846;52.970;-3.168;2023-06-22T05:46:01;101035.73;;;17.45;46.40
73566;BME280;61846;52.970;-3.168;2023-06-22T05:48:26;101035.07;;;17.55;46.01
73566;BME280;61846;52.970;-3.168;2023-06-22T05:50:51;101034.00;;;17.83;45.84
73566;BME280;61846;52.970;-3.168;2023-06-22T05:53:16;101030.38;;;17.75;46.10
73566;BME280;61846;52.970;-3.168;2023-06-22T05:55:42;101032.30;;;17.85;45.66
73566;BME280;61846;52.970;-3.168;2023-06-22T05:58:07;101033.04;;;17.70;45.74
73566;BME280;61846;52.970;-3.168;2023-06-22T06:00:33;101037.16;;;17.96;45.39
73566;BME280;61846;52.970;-3.168;2023-06-22T06:02:58;101039.72;;;17.52;46.58
73566;BME280;61846;52.970;-3.168;2023-06-22T06:05:23;101042.66;;;18.21;45.50
73566;BME280;61846;52.970;-3.168;2023-06-22T06:07:49;101045.99;;;17.89;46.36
73566;BME280;61846;52.970;-3.168;2023-06-22T06:10:14;101044.33;;;18.74;44.78
73566;BME280;61846;52.970;-3.168;2023-06-22T06:12:39;101042.19;;;18.10;45.10
73566;BME280;61846;52.970;-3.168;2023-06-22T06:15:05;101034.84;;;18.44;45.31
73566;BME280;61846;52.970;-3.168;2023-06-22T06:17:30;101034.86;;;18.56;44.42
73566;BME280;61846;52.970;-3.168;2023-06-22T06:19:56;101038.50;;;18.29;45.26
73566;BME280;61846;52.970;-3.168;2023-06-22T06:22:21;101039.30;;;19.02;45.56
73566;BME280;61846;52.970;-3.168;2023-06-22T06:24:46;101037.64;;;18.77;45.94
73566;BME280;61846;52.970;-3.168;2023-06-22T06:27:12;101036.29;;;18.97;44.71
73566;BME280;61846;52.970;-3.168;2023-06-22T06:29:37;101036.64;;;18.91;44.27
73566;BME280;61846;52.970;-3.168;2023-06-22T06:32:03;101037.37;;;19.33;44.21
73566;BME280;61846;52.970;-3.168;2023-06-22T06:34:28;101038.93;;;19.48;43.91
73566;BME280;61846;52.970;-3.168;2023-06-22T06:36:53;101037.82;;;19.49;44.12
73566;BME280;61846;52.970;-3.168;2023-06-22T06:39:19;101034.80;;;19.71;44.30
73566;BME280;61846;52.970;-3.168;2023-06-22T06:41:44;101036.71;;;19.57;44.00
73566;BME280;61846;52.970;-3.168;2023-06-22T06:44:09;101041.11;;;20.31;42.81
73566;BME280;61846;52.970;-3.168;2023-06-22T06:46:35;101045.83;;;20.17;42.76
73566;BME280;61846;52.970;-3.168;2023-06-22T06:49:00;101046.58;;;20.47;42.23
73566;BME280;61846;52.970;-3.168;2023-06-22T06:51:26;101050.17;;;20.28;42.19
73566;BME280;61846;52.970;-3.168;2023-06-22T06:53:52;101053.95;;;20.04;42.22
73566;BME280;61846;52.970;-3.168;2023-06-22T06:56:17;101051.74;;;20.33;42.46
73566;BME280;61846;52.970;-3.168;2023-06-22T06:58:43;101049.10;;;20.35;41.86
73566;BME280;61846;52.970;-3.168;2023-06-22T07:01:08;101047.30;;;21.02;42.18
73566;BME280;61846;52.970;-3.168;2023-06-22T07:03:33;101050.30;;;19.91;42.83
73566;BME280;61846;52.970;-3.168;2023-06-22T07:05:59;101050.82;;;19.53;44.54
73566;BME280;61846;52.970;-3.168;2023-06-22T07:08:25;101054.42;;;19.69;44.22
73566;BME280;61846;52.970;-3.168;2023-06-22T07:10:49;101057.51;;;19.27;44.51
73566;BME280;61846;52.970;-3.168;2023-06-22T07:13:15;101056.91;;;19.72;43.37
73566;BME280;61846;52.970;-3.168;2023-06-22T07:15:40;101058.33;;;19.68;44.71
73566;BME280;61846;52.970;-3.168;2023-06-22T07:18:06;101059.22;;;20.39;43.31
73566;BME280;61846;52.970;-3.168;2023-06-22T07:20:31;101057.50;;;20.72;43.24
73566;BME280;61846;52.970;-3.168;2023-06-22T07:22:57;101060.23;;;21.39;42.21
73566;BME280;61846;52.970;-3.168;2023-06-22T07:25:22;101057.20;;;21.17;40.53
73566;BME280;61846;52.970;-3.168;2023-06-22T07:27:58;101059.86;;;21.25;41.57
73566;BME280;61846;52.970;-3.168;2023-06-22T07:30:13;101057.38;;;21.58;40.66
73566;BME280;61846;52.970;-3.168;2023-06-22T07:32:39;101058.47;;;21.07;40.60
73566;BME280;61846;52.970;-3.168;2023-06-22T07:35:05;101053.34;;;21.18;41.01
73566;BME280;61846;52.970;-3.168;2023-06-22T07:37:29;101049.96;;;22.04;40.25
73566;BME280;61846;52.970;-3.168;2023-06-22T07:39:55;101051.54;;;21.43;41.45
73566;BME280;61846;52.970;-3.168;2023-06-22T07:42:20;101052.45;;;21.90;40.55
73566;BME280;61846;52.970;-3.168;2023-06-22T07:44:45;101053.84;;;22.26;40.92
73566;BME280;61846;52.970;-3.168;2023-06-22T07:47:11;101054.01;;;22.46;38.72
73566;BME280;61846;52.970;-3.168;2023-06-22T07:49:36;101056.29;;;22.42;39.36
73566;BME280;61846;52.970;-3.168;2023-06-22T07:52:01;101053.96;;;22.30;39.41
73566;BME280;61846;52.970;-3.168;2023-06-22T07:54:27;101055.56;;;22.00;39.27
73566;BME280;61846;52.970;-3.168;2023-06-22T07:56:52;101058.15;;;23.00;38.25
73566;BME280;61846;52.970;-3.168;2023-06-22T07:59:17;101059.04;;;22.34;39.98
73566;BME280;61846;52.970;-3.168;2023-06-22T08:01:42;101058.27;;;22.35;38.60
73566;BME280;61846;52.970;-3.168;2023-06-22T08:04:08;101060.54;;;21.83;41.23
73566;BME280;61846;52.970;-3.168;2023-06-22T08:06:33;101057.48;;;22.73;39.42
73566;BME280;61846;52.970;-3.168;2023-06-22T08:08:58;101056.71;;;22.64;39.08
73566;BME280;61846;52.970;-3.168;2023-06-22T08:11:24;101060.41;;;23.01;37.52
73566;BME280;61846;52.970;-3.168;2023-06-22T08:13:49;101059.11;;;23.30;36.17
73566;BME280;61846;52.970;-3.168;2023-06-22T08:16:14;101061.38;;;23.65;37.23
73566;BME280;61846;52.970;-3.168;2023-06-22T08:18:39;101063.09;;;23.35;35.49
73566;BME280;61846;52.970;-3.168;2023-06-22T08:21:05;101065.31;;;23.61;37.79
73566;BME280;61846;52.970;-3.168;2023-06-22T08:23:30;101064.96;;;24.14;34.42
73566;BME280;61846;52.970;-3.168;2023-06-22T08:25:55;101067.11;;;24.25;34.94
73566;BME280;61846;52.970;-3.168;2023-06-22T08:28:21;101065.57;;;24.41;34.34
73566;BME280;61846;52.970;-3.168;2023-06-22T08:30:46;101063.97;;;24.94;32.73
73566;BME280;61846;52.970;-3.168;2023-06-22T08:33:11;101062.71;;;24.47;33.66
73566;BME280;61846;52.970;-3.168;2023-06-22T08:35:37;101062.58;;;24.50;34.58
73566;BME280;61846;52.970;-3.168;2023-06-22T08:38:02;101059.20;;;24.23;33.93
73566;BME280;61846;52.970;-3.168;2023-06-22T08:40:28;101063.30;;;23.83;34.70
73566;BME280;61846;52.970;-3.168;2023-06-22T08:42:53;101063.17;;;24.59;35.13
73566;BME280;61846;52.970;-3.168;2023-06-22T08:45:18;101061.50;;;24.44;33.87
73566;BME280;61846;52.970;-3.168;2023-06-22T08:47:44;101064.81;;;24.71;33.64
73566;BME280;61846;52.970;-3.168;2023-06-22T08:50:10;101068.59;;;24.83;34.85
73566;BME280;61846;52.970;-3.168;2023-06-22T08:52:35;101068.24;;;25.10;34.28
73566;BME280;61846;52.970;-3.168;2023-06-22T08:54:59;101063.79;;;24.08;34.30
73566;BME280;61846;52.970;-3.168;2023-06-22T08:57:25;101060.51;;;25.05;33.86
73566;BME280;61846;52.970;-3.168;2023-06-22T08:59:50;101062.05;;;24.24;35.26
73566;BME280;61846;52.970;-3.168;2023-06-22T09:02:15;101060.54;;;25.33;33.67
73566;BME280;61846;52.970;-3.168;2023-06-22T09:04:41;101058.82;;;23.12;35.55
73566;BME280;61846;52.970;-3.168;2023-06-22T09:07:06;101053.92;;;25.44;32.92
73566;BME280;61846;52.970;-3.168;2023-06-22T09:09:31;101056.57;;;24.57;34.39
73566;BME280;61846;52.970;-3.168;2023-06-22T09:11:56;101059.29;;;25.18;33.11
73566;BME280;61846;52.970;-3.168;2023-06-22T09:14:22;101057.66;;;25.85;31.43
73566;BME280;61846;52.970;-3.168;2023-06-22T09:16:47;101061.91;;;25.28;33.28
73566;BME280;61846;52.970;-3.168;2023-06-22T09:19:12;101056.73;;;25.83;32.36
73566;BME280;61846;52.970;-3.168;2023-06-22T09:21:38;101053.97;;;25.51;32.62
73566;BME280;61846;52.970;-3.168;2023-06-22T09:24:04;101058.35;;;26.63;31.04
73566;BME280;61846;52.970;-3.168;2023-06-22T09:26:29;101061.65;;;26.08;31.67
73566;BME280;61846;52.970;-3.168;2023-06-22T09:28:54;101062.64;;;26.54;31.31
73566;BME280;61846;52.970;-3.168;2023-06-22T09:31:19;101060.99;;;26.30;31.48
73566;BME280;61846;52.970;-3.168;2023-06-22T09:33:44;101059.06;;;26.71;30.79
73566;BME280;61846;52.970;-3.168;2023-06-22T09:36:10;101057.26;;;26.29;29.99
73566;BME280;61846;52.970;-3.168;2023-06-22T09:38:35;101058.52;;;25.71;31.45
73566;BME280;61846;52.970;-3.168;2023-06-22T09:41:00;101060.29;;;26.67;30.86
73566;BME280;61846;52.970;-3.168;2023-06-22T09:43:26;101061.27;;;25.84;32.69
73566;BME280;61846;52.970;-3.168;2023-06-22T09:45:51;101061.98;;;26.24;30.90
73566;BME280;61846;52.970;-3.168;2023-06-22T09:48:16;101062.64;;;26.39;29.48
73566;BME280;61846;52.970;-3.168;2023-06-22T09:50:41;101064.88;;;26.80;29.41
73566;BME280;61846;52.970;-3.168;2023-06-22T09:53:06;101062.93;;;27.21;28.74
73566;BME280;61846;52.970;-3.168;2023-06-22T09:55:32;101065.75;;;26.79;28.50
73566;BME280;61846;52.970;-3.168;2023-06-22T09:57:57;101066.96;;;27.32;28.10
73566;BME280;61846;52.970;-3.168;2023-06-22T10:00:22;101068.38;;;26.17;29.45
73566;BME280;61846;52.970;-3.168;2023-06-22T10:02:48;101068.48;;;26.53;30.40
73566;BME280;61846;52.970;-3.168;2023-06-22T10:05:13;101068.57;;;26.85;29.37
73566;BME280;61846;52.970;-3.168;2023-06-22T10:07:38;101072.44;;;25.84;29.58
73566;BME280;61846;52.970;-3.168;2023-06-22T10:10:04;101073.17;;;25.81;29.97
73566;BME280;61846;52.970;-3.168;2023-06-22T10:12:28;101072.45;;;26.34;28.83
73566;BME280;61846;52.970;-3.168;2023-06-22T10:14:54;101067.11;;;27.28;28.04
73566;BME280;61846;52.970;-3.168;2023-06-22T10:17:19;101068.47;;;26.51;28.59
73566;BME280;61846;52.970;-3.168;2023-06-22T10:19:44;101066.94;;;27.02;28.32
73566;BME280;61846;52.970;-3.168;2023-06-22T10:22:09;101066.61;;;26.75;28.35
73566;BME280;61846;52.970;-3.168;2023-06-22T10:24:35;101068.99;;;27.16;28.69
73566;BME280;61846;52.970;-3.168;2023-06-22T10:27:00;101068.95;;;27.48;28.47
73566;BME280;61846;52.970;-3.168;2023-06-22T10:29:26;101066.09;;;27.13;29.10
73566;BME280;61846;52.970;-3.168;2023-06-22T10:31:50;101068.83;;;26.28;29.72
73566;BME280;61846;52.970;-3.168;2023-06-22T10:34:16;101062.28;;;27.08;29.51
73566;BME280;61846;52.970;-3.168;2023-06-22T10:36:42;101064.99;;;25.77;31.40
73566;BME280;61846;52.970;-3.168;2023-06-22T10:39:07;101054.70;;;26.23;29.38
73566;BME280;61846;52.970;-3.168;2023-06-22T10:41:32;101046.92;;;26.84;28.37
73566;BME280;61846;52.970;-3.168;2023-06-22T10:43:57;101047.76;;;25.72;29.60
73566;BME280;61846;52.970;-3.168;2023-06-22T10:46:24;101042.88;;;26.54;28.92
73566;BME280;61846;52.970;-3.168;2023-06-22T10:48:48;101044.93;;;25.67;29.36
73566;BME280;61846;52.970;-3.168;2023-06-22T10:51:13;101045.03;;;26.50;29.00
73566;BME280;61846;52.970;-3.168;2023-06-22T10:53:38;101042.24;;;27.15;27.31
73566;BME280;61846;52.970;-3.168;2023-06-22T10:56:04;101037.41;;;26.68;29.93
73566;BME280;61846;52.970;-3.168;2023-06-22T10:58:29;101037.84;;;27.50;28.30
73566;BME280;61846;52.970;-3.168;2023-06-22T11:00:54;101042.69;;;26.46;29.53
73566;BME280;61846;52.970;-3.168;2023-06-22T11:03:24;101043.02;;;26.54;29.01
73566;BME280;61846;52.970;-3.168;2023-06-22T11:05:45;101042.49;;;27.42;27.77
73566;BME280;61846;52.970;-3.168;2023-06-22T11:08:14;101039.58;;;27.25;27.07
73566;BME280;61846;52.970;-3.168;2023-06-22T11:10:40;101039.20;;;28.21;26.88
73566;BME280;61846;52.970;-3.168;2023-06-22T11:13:01;101036.56;;;28.12;29.02
73566;BME280;61846;52.970;-3.168;2023-06-22T11:15:26;101037.65;;;28.62;31.06
73566;BME280;61846;52.970;-3.168;2023-06-22T11:17:51;101035.78;;;28.69;26.01
73566;BME280;61846;52.970;-3.168;2023-06-22T11:20:17;101040.29;;;28.22;26.94
73566;BME280;61846;52.970;-3.168;2023-06-22T11:22:42;101046.16;;;28.80;27.10
73566;BME280;61846;52.970;-3.168;2023-06-22T11:25:08;101045.09;;;28.33;27.24
73566;BME280;61846;52.970;-3.168;2023-06-22T11:27:32;101046.17;;;29.02;25.62
73566;BME280;61846;52.970;-3.168;2023-06-22T11:29:58;101043.46;;;28.55;26.54
73566;BME280;61846;52.970;-3.168;2023-06-22T11:32:23;101042.49;;;27.84;28.20
73566;BME280;61846;52.970;-3.168;2023-06-22T11:34:48;101042.83;;;27.55;26.65
73566;BME280;61846;52.970;-3.168;2023-06-22T11:37:13;101044.62;;;27.63;27.75
73566;BME280;61846;52.970;-3.168;2023-06-22T11:39:38;101044.16;;;28.00;27.46
73566;BME280;61846;52.970;-3.168;2023-06-22T11:42:04;101043.27;;;28.04;27.54
73566;BME280;61846;52.970;-3.168;2023-06-22T11:44:29;101045.40;;;28.65;25.79
73566;BME280;61846;52.970;-3.168;2023-06-22T11:46:54;101038.22;;;28.44;26.13
73566;BME280;61846;52.970;-3.168;2023-06-22T11:49:19;101039.99;;;28.63;26.32
73566;BME280;61846;52.970;-3.168;2023-06-22T11:51:44;101041.24;;;28.88;25.83
73566;BME280;61846;52.970;-3.168;2023-06-22T11:54:10;101043.13;;;28.52;25.42
73566;BME280;61846;52.970;-3.168;2023-06-22T11:56:36;101042.36;;;28.12;25.91
73566;BME280;61846;52.970;-3.168;2023-06-22T11:59:01;101043.65;;;29.25;25.55
73566;BME280;61846;52.970;-3.168;2023-06-22T12:01:26;101040.37;;;27.59;25.10
73566;BME280;61846;52.970;-3.168;2023-06-22T12:03:51;101038.40;;;28.37;25.61
73566;BME280;61846;52.970;-3.168;2023-06-22T12:06:17;101037.19;;;27.86;25.37
73566;BME280;61846;52.970;-3.168;2023-06-22T12:08:42;101039.31;;;28.79;25.61
73566;BME280;61846;52.970;-3.168;2023-06-22T12:11:07;101033.86;;;28.63;26.29
73566;BME280;61846;52.970;-3.168;2023-06-22T12:13:32;101032.62;;;27.73;26.28
73566;BME280;61846;52.970;-3.168;2023-06-22T12:15:57;101030.87;;;28.87;26.64
73566;BME280;61846;52.970;-3.168;2023-06-22T12:18:22;101029.24;;;28.32;26.84
73566;BME280;61846;52.970;-3.168;2023-06-22T12:20:48;101032.08;;;28.96;28.14
73566;BME280;61846;52.970;-3.168;2023-06-22T12:23:15;101026.42;;;29.27;25.01
73566;BME280;61846;52.970;-3.168;2023-06-22T12:25:39;101026.23;;;28.94;27.26
73566;BME280;61846;52.970;-3.168;2023-06-22T12:28:04;101030.44;;;28.71;27.06
73566;BME280;61846;52.970;-3.168;2023-06-22T12:30:29;101032.46;;;29.48;25.80